Terminal Aerodrome Forecast
Issued by NWS Charleston, WV

Current Version | Previous Version | Text Only | Print | Product List | Glossary Off
Versions: 1 2 3 4 5 6 7 8 9 10 11 12 13 14 15 16 17 18 19 20

000
FTUS41 KRLX 280800 AAA
TAFBKW
TAF AMD
KBKW 280900Z 2809/2906 00000KT 2SM BR BKN003
     FM281100 00000KT 4SM BR BKN005
     FM281300 VRB03KT P6SM BKN010
     FM281600 34005KT P6SM BKN015
     FM281700 33005KT P6SM SCT025=

USA.gov is the U.S. government's official web portal to all federal, state and local government web resources and services.